Time;durP1;ratioP1;P1;durP2;ratioP2;P2;SDS_P1;SDS_P2;PMS_P1;PMS_P2;Temp;Humidity;BMP_temperature;BMP_pressure;BME280_temperature;BME280_humidity;BME280_pressure;Samples;Min_cycle;Max_cycle;Signal;HPM_P1;HPM_P2
2021/12/17 00:04:36;;;;;;;8.95;6.63;;;;;;;18.85;53.22;104128.75;5013102;28;20044;-74
2021/12/17 00:07:13;;;;;;;11.10;6.85;;;;;;;18.87;53.32;104124.25;5044701;28;20045;-74
2021/12/17 00:09:42;;;;;;;11.07;6.88;;;;;;;18.84;53.04;104122.59;5014296;28;20067;-74
2021/12/17 00:12:10;;;;;;;9.70;6.47;;;;;;;18.87;53.08;104132.25;5014346;28;20528;-74
2021/12/17 00:14:38;;;;;;;11.20;6.88;;;;;;;18.84;52.94;104127.91;5048294;28;20503;-74
2021/12/17 00:17:06;;;;;;;12.02;6.78;;;;;;;18.86;53.20;104133.16;5047622;28;20167;-74
2021/12/17 00:48:58;;;;;;;8.90;5.82;;;;;;;18.73;53.50;104133.63;5031851;28;20083;-74
2021/12/17 00:54:06;;;;;;;9.95;5.88;;;;;;;18.75;52.83;104122.09;5030815;28;20030;-73
2021/12/17 00:56:32;;;;;;;;;;;;;;;18.69;52.82;104126.66;5031014;28;20115;-74
2021/12/17 00:58:57;;;;;;;9.43;5.70;;;;;;;18.70;53.57;104125.72;5031534;28;19920;-74
2021/12/17 01:01:23;;;;;;;8.73;5.80;;;;;;;18.69;52.99;104129.34;5013285;28;20485;-74
2021/12/17 01:03:48;;;;;;;8.45;5.50;;;;;;;18.69;52.79;104118.69;5013737;28;20482;-75
2021/12/17 01:06:14;;;;;;;8.32;5.68;;;;;;;18.73;53.29;104116.81;5030962;28;20583;-75
2021/12/17 01:08:39;;;;;;;9.73;5.93;;;;;;;18.70;53.30;104131.06;5013807;28;20041;-74
2021/12/17 01:11:05;;;;;;;7.50;5.43;;;;;;;18.70;53.46;104127.53;5030763;28;20057;-74
2021/12/17 01:13:31;;;;;;;8.10;5.38;;;;;;;18.64;52.77;104123.31;5013692;28;20049;-75
2021/12/17 01:15:56;;;;;;;7.88;5.60;;;;;;;18.66;53.49;104121.47;5013911;28;20037;-75
2021/12/17 01:18:32;;;;;;;9.45;5.60;;;;;;;18.63;53.46;104116.28;5032643;28;20127;-74
2021/12/17 01:42:43;;;;;;;7.95;5.30;;;;;;;18.61;52.89;104122.56;5029908;28;20048;-74
2021/12/17 01:45:08;;;;;;;7.18;4.90;;;;;;;18.60;52.95;104119.03;5029592;28;20037;-74
2021/12/17 01:47:34;;;;;;;8.23;5.22;;;;;;;18.58;52.92;104120.03;4996602;28;20067;-74
2021/12/17 02:01:09;;;;;;;8.50;5.07;;;;;;;18.59;53.21;104151.91;5015040;28;20079;-73
2021/12/17 02:03:34;;;;;;;9.55;5.60;;;;;;;18.54;53.49;104158.31;5012427;28;20045;-74
2021/12/17 02:06:02;;;;;;;8.25;5.38;;;;;;;18.51;53.05;104153.97;5012795;28;20052;-74
2021/12/17 02:08:28;;;;;;;7.82;4.93;;;;;;;18.49;53.58;104156.69;5030198;28;20529;-74
2021/12/17 02:32:17;;;;;;;8.60;5.03;;;;;;;18.49;52.75;104158.50;5012571;28;20076;-73
2021/12/17 02:35:08;;;;;;;9.70;5.47;;;;;;;18.47;53.18;104155.88;5012004;28;20120;-73
2021/12/17 02:37:34;;;;;;;8.32;5.15;;;;;;;18.48;53.06;104160.25;5015084;28;20865;-73
2021/12/17 02:47:44;;;;;;;10.27;5.60;;;;;;;18.45;53.08;104143.56;5028705;28;20107;-73
2021/12/17 02:50:10;;;;;;;9.75;5.68;;;;;;;18.44;52.97;104141.84;5029018;28;20436;-73
2021/12/17 02:52:37;;;;;;;10.35;5.70;;;;;;;18.44;53.18;104134.72;5029164;28;20552;-73
2021/12/17 02:55:04;;;;;;;10.65;5.70;;;;;;;18.43;52.99;104130.34;5028600;28;20041;-72
2021/12/17 02:57:30;;;;;;;9.40;5.60;;;;;;;18.42;53.47;104135.69;5011017;28;20076;-73
2021/12/17 02:59:55;;;;;;;10.32;5.18;;;;;;;18.41;53.27;104131.31;4995415;28;20029;-72
2021/12/17 03:02:26;;;;;;;8.90;5.20;;;;;;;18.40;53.15;104125.16;4994823;28;20458;-73
2021/12/17 03:04:52;;;;;;;9.55;5.50;;;;;;;18.42;53.21;104127.72;4980701;28;20116;-73
2021/12/17 03:07:17;;;;;;;8.32;4.82;;;;;;;18.41;52.99;104126.00;4990487;28;20045;-73
2021/12/17 03:10:03;;;;;;;9.07;5.25;;;;;;;18.37;53.08;104125.25;5011701;28;20041;-73
2021/12/17 03:12:40;;;;;;;9.98;5.40;;;;;;;18.36;52.92;104127.97;5013756;28;20397;-74
2021/12/17 03:25:34;;;;;;;8.63;5.15;;;;;;;18.36;53.29;104117.31;5014105;28;20540;-74
2021/12/17 03:27:59;;;;;;;8.30;4.95;;;;;;;18.38;52.87;104108.38;5029008;28;20061;-74
2021/12/17 03:30:25;;;;;;;8.25;4.78;;;;;;;18.36;53.20;104112.00;5028177;28;20512;-73
2021/12/17 03:32:50;;;;;;;9.60;5.18;;;;;;;18.33;53.29;104118.28;5028534;28;20400;-73
2021/12/17 03:35:15;;;;;;;8.32;4.88;;;;;;;18.29;53.10;104115.81;5027968;28;20048;-73
2021/12/17 03:37:41;;;;;;;8.13;4.60;;;;;;;18.33;53.24;104120.09;5010836;28;20397;-74
2021/12/17 03:40:07;;;;;;;8.80;4.70;;;;;;;18.31;53.31;104114.00;5028101;28;20098;-73
2021/12/17 03:42:32;;;;;;;8.45;4.80;;;;;;;18.27;53.22;104113.25;5028692;28;20041;-73
2021/12/17 03:44:57;;;;;;;8.20;4.80;;;;;;;18.29;53.44;104126.47;5028777;28;20040;-74
2021/12/17 03:47:23;;;;;;;9.02;4.80;;;;;;;18.28;53.28;104120.28;5009870;28;20099;-73
2021/12/17 03:49:49;;;;;;;8.20;4.55;;;;;;;18.31;52.95;104120.16;5010866;28;20054;-73
2021/12/17 03:52:16;;;;;;;8.60;4.38;;;;;;;18.26;53.52;104122.13;5010108;28;20123;-73
2021/12/17 03:54:41;;;;;;;7.40;4.45;;;;;;;18.29;53.12;104126.47;5028186;28;20397;-73
2021/12/17 03:57:10;;;;;;;8.10;4.65;;;;;;;18.30;52.88;104125.53;5009640;28;20046;-73
2021/12/17 03:59:35;;;;;;;8.10;4.68;;;;;;;18.26;53.69;104120.31;5010921;28;20037;-73
2021/12/17 04:02:01;;;;;;;6.85;4.20;;;;;;;18.28;53.01;104122.94;5027672;28;20047;-72
2021/12/17 04:04:26;;;;;;;7.47;4.55;;;;;;;18.30;53.33;104125.53;5010401;28;20499;-73
2021/12/17 04:06:52;;;;;;;6.55;4.30;;;;;;;18.29;53.08;104115.81;5027607;28;20041;-73
2021/12/17 04:09:20;;;;;;;7.32;4.35;;;;;;;18.27;53.21;104127.41;5027679;28;20041;-73
2021/12/17 04:11:46;;;;;;;8.35;4.65;;;;;;;18.27;53.26;104129.19;5027996;28;20467;-73
2021/12/17 04:14:12;;;;;;;7.95;4.53;;;;;;;18.26;53.13;104128.28;5010310;28;20464;-73
2021/12/17 04:16:38;;;;;;;7.57;4.22;;;;;;;18.28;53.27;104130.91;5028016;28;20061;-73
2021/12/17 04:19:03;;;;;;;7.53;4.05;;;;;;;18.26;53.43;104130.97;5043404;28;20041;-72
2021/12/17 04:21:29;;;;;;;6.97;3.90;;;;;;;18.23;53.17;104127.56;5030221;28;20128;-74
2021/12/17 04:23:54;;;;;;;6.78;4.28;;;;;;;18.23;53.29;104130.22;5030177;28;20030;-74
2021/12/17 04:26:21;;;;;;;7.65;4.28;;;;;;;18.22;52.78;104126.69;5043169;28;20087;-73
2021/12/17 04:28:49;;;;;;;8.15;4.78;;;;;;;18.19;52.96;104123.28;5027838;28;20818;-73
2021/12/17 04:31:15;;;;;;;8.63;4.57;;;;;;;18.20;52.82;104128.53;4994162;28;20144;-73
2021/12/17 04:33:42;;;;;;;6.65;3.80;;;;;;;18.19;52.96;104126.81;5010136;28;20168;-73
2021/12/17 04:36:08;;;;;;;7.60;4.20;;;;;;;18.21;53.20;104129.41;5009841;28;20033;-73
2021/12/17 04:38:33;;;;;;;6.50;4.03;;;;;;;18.15;53.08;104130.50;5027281;28;20046;-73
2021/12/17 04:59:40;;;;;;;6.60;3.78;;;;;;;18.18;53.37;104111.78;5028192;28;20046;-74
2021/12/17 05:02:05;;;;;;;6.00;3.50;;;;;;;18.19;53.38;104116.16;5027322;28;20148;-74
2021/12/17 05:04:31;;;;;;;6.22;3.47;;;;;;;18.15;53.19;104114.56;5009878;28;20460;-74
2021/12/17 05:06:56;;;;;;;6.95;3.65;;;;;;;18.13;53.20;104108.41;5026386;28;20035;-74
2021/12/17 05:09:34;;;;;;;6.25;3.45;;;;;;;18.14;53.31;104112.81;5025798;28;20037;-74
2021/12/17 05:19:57;;;;;;;6.93;3.53;;;;;;;18.15;53.25;104117.22;5033810;28;20413;-73
2021/12/17 05:22:25;;;;;;;7.20;3.85;;;;;;;18.13;53.10;104120.84;5050630;28;20037;-73
2021/12/17 05:24:50;;;;;;;5.85;3.30;;;;;;;18.15;53.01;104122.53;5050936;28;20068;-74
2021/12/17 05:27:16;;;;;;;7.60;3.70;;;;;;;18.15;53.18;104126.97;5017814;28;20073;-73
2021/12/17 05:29:41;;;;;;;7.20;3.78;;;;;;;18.09;53.45;104130.72;5031140;28;20152;-74
2021/12/17 05:32:07;;;;;;;6.45;3.72;;;;;;;18.11;53.17;104115.56;5030094;28;20501;-72
2021/12/17 05:34:33;;;;;;;6.35;3.30;;;;;;;18.10;53.30;104131.59;5030956;28;20044;-73
2021/12/17 05:36:58;;;;;;;6.53;3.60;;;;;;;18.10;53.30;104132.44;5013299;28;20041;-73
2021/12/17 05:39:23;;;;;;;5.93;3.30;;;;;;;18.09;52.85;104130.72;5029061;28;20043;-73
2021/12/17 05:41:49;;;;;;;6.75;3.63;;;;;;;18.09;52.97;104138.69;5013342;28;20033;-74
2021/12/17 05:44:16;;;;;;;6.63;3.42;;;;;;;18.09;52.84;104136.03;5030018;28;20061;-74
2021/12/17 05:46:50;;;;;;;5.63;3.10;;;;;;;18.04;53.19;104132.66;5030512;28;20037;-74
2021/12/17 05:49:20;;;;;;;6.80;3.60;;;;;;;18.11;53.36;104135.97;5013900;28;20061;-74
2021/12/17 05:51:45;;;;;;;5.90;3.20;;;;;;;18.10;53.37;104135.09;5030543;28;20041;-74
2021/12/17 05:54:11;;;;;;;6.57;3.78;;;;;;;18.15;52.90;104126.97;5012262;28;20051;-74
2021/12/17 05:56:37;;;;;;;7.13;3.45;;;;;;;18.23;52.92;104131.06;5029157;28;20040;-74
2021/12/17 05:59:03;;;;;;;5.95;3.30;;;;;;;18.31;52.50;104133.47;5012103;28;20044;-73
2021/12/17 06:01:28;;;;;;;6.15;3.17;;;;;;;18.36;52.54;104133.28;5012591;28;20037;-74
2021/12/17 06:03:54;;;;;;;5.90;3.40;;;;;;;18.41;52.56;104131.31;5012525;28;20042;-74
2021/12/17 06:06:32;;;;;;;5.45;3.00;;;;;;;18.49;52.84;104139.88;5029911;28;20114;-73
2021/12/17 06:09:01;;;;;;;5.18;2.78;;;;;;;18.55;52.43;104144.97;5013748;28;20034;-71
2021/12/17 06:11:26;;;;;;;8.30;4.15;;;;;;;18.48;52.55;104143.44;5032654;28;20044;-72
2021/12/17 06:13:51;;;;;;;7.07;3.65;;;;;;;18.59;52.59;104151.91;5036216;28;20565;-66
2021/12/17 06:16:17;;;;;;;7.45;3.83;;;;;;;18.55;52.67;104149.41;5040361;28;20493;-72
2021/12/17 06:18:42;;;;;;;6.60;3.30;;;;;;;18.62;53.21;104151.78;4998902;28;20076;-73
2021/12/17 06:21:08;;;;;;;7.05;3.08;;;;;;;18.69;52.86;104141.78;5037799;28;20041;-72
2021/12/17 06:23:33;;;;;;;6.70;3.05;;;;;;;18.70;53.04;104144.34;5029743;28;20532;-74
2021/12/17 06:25:59;;;;;;;5.88;2.83;;;;;;;18.71;53.38;104146.09;5031477;28;20052;-74
2021/12/17 06:28:24;;;;;;;6.07;2.78;;;;;;;18.79;53.10;104148.50;5029340;28;20053;-74
2021/12/17 06:30:49;;;;;;;6.22;2.90;;;;;;;18.83;53.28;104157.22;5029291;28;20038;-74
2021/12/17 06:33:15;;;;;;;5.13;2.20;;;;;;;18.85;53.11;104166.00;5028859;28;20450;-73
2021/12/17 06:35:40;;;;;;;4.72;2.60;;;;;;;18.92;52.91;104164.84;5029186;28;20060;-72
2021/12/17 06:38:06;;;;;;;5.43;2.70;;;;;;;18.96;53.03;104161.16;5028854;28;21732;-73
2021/12/17 06:40:31;;;;;;;5.28;2.67;;;;;;;19.04;52.68;104163.50;5029132;28;20112;-73
2021/12/17 06:42:57;;;;;;;4.20;2.05;;;;;;;19.11;52.48;104162.31;5000953;28;20489;-74
2021/12/17 06:45:38;;;;;;;4.68;2.30;;;;;;;19.15;52.75;104167.47;5011266;28;20041;-73
2021/12/17 06:48:04;;;;;;;3.92;1.90;;;;;;;19.18;52.21;104156.69;5013503;28;20112;-74
2021/12/17 06:56:58;;;;;;;3.63;1.90;;;;;;;19.30;51.98;104168.63;5039524;28;20048;-73
2021/12/17 07:17:55;;;;;;;3.08;1.58;;;;;;;19.44;52.13;104178.72;5045414;28;20048;-75
2021/12/17 07:32:16;;;;;;;4.55;1.80;;;;;;;19.49;52.54;104184.72;4955232;28;20165;-65
2021/12/17 07:34:07;;;;;;;4.22;1.80;;;;;;;19.48;52.63;104185.63;4997741;28;20049;-63
2021/12/17 07:39:23;;;;;;;4.65;2.20;;;;;;;19.44;52.74;104183.19;5013195;28;20044;-63
2021/12/17 07:41:49;;;;;;;5.50;2.30;;;;;;;19.37;53.96;104193.22;5033116;28;20285;-63
2021/12/17 07:44:14;;;;;;;5.03;2.10;;;;;;;19.30;54.16;104189.06;5044264;28;20041;-64
2021/12/17 07:46:40;;;;;;;5.78;2.30;;;;;;;19.27;54.33;104208.66;5040021;28;20445;-64
2021/12/17 07:49:05;;;;;;;4.00;2.08;;;;;;;19.23;54.15;104206.22;5036050;28;20052;-64
2021/12/17 07:51:31;;;;;;;5.00;2.30;;;;;;;19.21;54.88;104200.06;5027476;28;20034;-64
2021/12/17 07:53:56;;;;;;;5.57;2.30;;;;;;;19.21;54.22;104202.72;5026129;28;20072;-64
2021/12/17 07:56:26;;;;;;;5.22;2.50;;;;;;;19.20;54.60;104209.84;5032992;28;20048;-63
2021/12/17 07:58:52;;;;;;;5.55;2.70;;;;;;;19.18;54.63;104217.06;5044831;28;20120;-63
2021/12/17 08:01:17;;;;;;;4.53;2.22;;;;;;;19.18;53.87;104215.25;5026429;28;20042;-63
2021/12/17 08:03:43;;;;;;;6.60;2.38;;;;;;;19.16;53.71;104214.44;4994710;28;20029;-63
2021/12/17 08:06:08;;;;;;;5.78;2.20;;;;;;;19.18;54.37;104215.25;5046047;28;20124;-63
2021/12/17 08:08:34;;;;;;;8.05;2.13;;;;;;;19.17;54.27;104213.50;5033419;28;20041;-63
2021/12/17 08:10:59;;;;;;;5.72;2.58;;;;;;;19.15;54.14;104209.19;5031959;28;20523;-63
2021/12/17 08:13:29;;;;;;;4.35;2.10;;;;;;;19.15;54.45;104210.06;5038682;28;20047;-64
2021/12/17 08:18:56;;;;;;;4.30;2.05;;;;;;;19.15;54.41;104211.84;5025158;28;20120;-63
2021/12/17 08:31:48;;;;;;;5.28;2.00;;;;;;;19.10;53.49;104201.38;5028905;28;20033;-64
2021/12/17 08:34:13;;;;;;;4.00;1.98;;;;;;;19.11;53.44;104196.91;5008511;28;20344;-64
2021/12/17 08:36:39;;;;;;;4.53;2.40;;;;;;;19.12;53.22;104186.22;5009517;28;20478;-64
2021/12/17 08:39:04;;;;;;;3.90;2.10;;;;;;;19.10;53.75;104193.38;5026233;28;20048;-64
2021/12/17 08:41:29;;;;;;;4.63;2.08;;;;;;;19.10;53.48;104188.06;5026955;28;20559;-64
2021/12/17 08:43:55;;;;;;;4.55;2.17;;;;;;;19.12;53.46;104191.53;5036632;28;20121;-64
2021/12/17 08:46:21;;;;;;;3.83;1.98;;;;;;;19.09;53.03;104194.31;5045559;28;20058;-64
2021/12/17 08:48:46;;;;;;;4.55;2.13;;;;;;;19.10;53.64;104200.50;5025639;28;20052;-64
2021/12/17 08:51:12;;;;;;;4.32;2.20;;;;;;;19.09;53.53;104199.66;5045977;28;20187;-64
2021/12/17 08:53:38;;;;;;;3.75;1.88;;;;;;;19.11;53.68;104202.22;5009925;28;20397;-64
2021/12/17 08:56:04;;;;;;;4.40;1.98;;;;;;;19.10;53.01;104208.50;5031108;28;20034;-64
2021/12/17 08:58:29;;;;;;;3.95;2.00;;;;;;;19.08;53.02;104203.22;5012553;28;20076;-64
2021/12/17 09:00:55;;;;;;;3.70;1.70;;;;;;;19.09;53.01;104207.63;5030579;28;20048;-64
2021/12/17 09:03:20;;;;;;;4.18;1.80;;;;;;;19.09;53.08;104215.63;5014157;28;20049;-64
2021/12/17 09:05:46;;;;;;;5.38;2.38;;;;;;;19.03;52.48;104218.53;5029397;28;20678;-64
2021/12/17 09:08:12;;;;;;;3.95;1.98;;;;;;;19.05;52.85;104215.78;5028177;28;20484;-64
2021/12/17 09:10:37;;;;;;;3.90;1.65;;;;;;;19.13;53.66;104216.34;5030047;28;20065;-64
2021/12/17 09:13:03;;;;;;;3.20;1.67;;;;;;;19.16;53.19;104217.09;5043810;28;20041;-64
2021/12/17 09:15:28;;;;;;;4.53;2.00;;;;;;;19.08;53.40;104216.53;5033058;28;20090;-63
2021/12/17 09:17:54;;;;;;;4.88;1.80;;;;;;;19.06;53.66;104220.19;5031638;28;20076;-63
2021/12/17 09:20:20;;;;;;;3.70;1.77;;;;;;;19.08;53.62;104213.88;5031461;28;20051;-63
2021/12/17 09:22:45;;;;;;;2.97;1.55;;;;;;;19.11;53.20;104223.53;5037398;28;20046;-63
2021/12/17 09:25:11;;;;;;;4.40;1.40;;;;;;;19.11;53.85;104221.72;5019408;28;20067;-64
2021/12/17 09:27:36;;;;;;;3.10;1.48;;;;;;;19.14;53.59;104218.94;5037443;28;20113;-64
2021/12/17 09:30:04;;;;;;;2.80;1.40;;;;;;;19.14;53.11;104218.09;5040056;28;20048;-65
2021/12/17 09:32:30;;;;;;;3.92;1.33;;;;;;;19.15;53.41;104223.38;5011236;28;20457;-64
2021/12/17 09:34:55;;;;;;;2.85;1.30;;;;;;;19.13;53.89;104225.22;5037589;28;20065;-64
2021/12/17 09:37:21;;;;;;;3.50;1.40;;;;;;;19.14;53.32;104229.59;5049143;28;20052;-64
2021/12/17 09:39:46;;;;;;;3.08;1.50;;;;;;;19.13;53.16;104227.88;5035466;28;20120;-63
2021/12/17 09:42:12;;;;;;;3.75;1.30;;;;;;;19.14;53.37;104232.25;5045218;28;20457;-64
2021/12/17 09:44:37;;;;;;;3.97;1.33;;;;;;;19.16;53.29;104234.88;5012428;28;20052;-64
2021/12/17 09:47:03;;;;;;;3.13;1.27;;;;;;;19.16;53.10;104241.06;5031598;28;20193;-64
2021/12/17 09:49:28;;;;;;;3.05;1.23;;;;;;;19.15;53.54;104241.13;5032564;28;20049;-64
2021/12/17 09:51:56;;;;;;;2.55;1.20;;;;;;;19.13;53.72;104238.50;5010688;28;20695;-63
2021/12/17 09:54:21;;;;;;;3.55;1.60;;;;;;;19.15;53.78;104244.66;5029116;28;20183;-64
2021/12/17 09:56:47;;;;;;;4.30;1.40;;;;;;;19.14;53.16;104248.22;5031093;28;20037;-64
2021/12/17 09:59:12;;;;;;;3.00;1.42;;;;;;;19.15;53.13;104247.31;5040857;28;20046;-63
2021/12/17 10:01:39;;;;;;;2.88;1.35;;;;;;;19.17;53.37;104256.09;5029166;28;20462;-64
2021/12/17 10:04:20;;;;;;;3.03;1.20;;;;;;;19.17;53.42;104255.22;5028507;28;20183;-64
2021/12/17 10:06:46;;;;;;;3.42;1.48;;;;;;;19.16;53.95;104258.84;5033553;28;20047;-63
2021/12/17 10:09:12;;;;;;;2.70;1.30;;;;;;;19.16;53.41;104273.00;5030750;28;20126;-64
2021/12/17 10:11:37;;;;;;;2.92;1.30;;;;;;;19.16;52.93;104270.34;5033805;28;20095;-63
2021/12/17 10:14:24;;;;;;;2.15;1.10;;;;;;;19.15;53.73;104271.28;5041177;28;20041;-64
2021/12/17 10:16:50;;;;;;;2.60;1.30;;;;;;;19.18;52.99;104279.16;5028648;28;20413;-63
2021/12/17 10:19:50;;;;;;;2.70;1.00;;;;;;;19.29;53.37;104280.50;5036418;28;20481;-63
2021/12/17 10:22:18;;;;;;;1.90;0.90;;;;;;;19.28;53.81;104284.13;5020484;28;20041;-63
2021/12/17 10:25:07;;;;;;;3.38;0.90;;;;;;;19.21;53.90;104278.16;5038020;28;20121;-63
2021/12/17 10:27:35;;;;;;;1.67;0.90;;;;;;;19.21;53.97;104267.50;5014271;28;20046;-63
2021/12/17 10:30:09;;;;;;;2.33;1.05;;;;;;;19.34;53.18;104266.09;5038299;28;20055;-63
2021/12/17 10:32:34;;;;;;;3.15;1.30;;;;;;;19.37;53.59;104273.09;5030443;28;20076;-64
2021/12/17 10:35:13;;;;;;;3.30;1.30;;;;;;;19.10;53.84;104270.56;5028133;28;20080;-64
2021/12/17 10:37:44;;;;;;;2.72;1.10;;;;;;;19.16;54.84;104265.00;5010582;28;20057;-64
2021/12/17 10:40:16;;;;;;;;;;;;;;;19.14;54.58;104266.84;5031370;28;20037;-64
2021/12/17 10:42:50;;;;;;;2.25;1.00;;;;;;;19.19;53.92;104266.69;5035970;28;19925;-64
2021/12/17 10:45:23;;;;;;;2.17;1.10;;;;;;;19.19;54.04;104267.56;5046004;28;20052;-64
2021/12/17 10:48:25;;;;;;;2.45;1.00;;;;;;;19.18;53.69;104268.50;5004492;28;20111;-64
2021/12/17 10:51:00;;;;;;;1.90;0.80;;;;;;;19.19;53.60;104267.56;5030395;28;20136;-64
2021/12/17 10:53:25;;;;;;;1.92;1.13;;;;;;;19.18;53.95;104259.66;5029874;28;20377;-64
2021/12/17 10:55:52;;;;;;;1.85;0.80;;;;;;;19.17;53.25;104248.09;5035654;28;20044;-64
2021/12/17 10:58:18;;;;;;;2.05;0.90;;;;;;;19.18;53.47;104249.00;5041923;28;20038;-64
2021/12/17 11:00:49;;;;;;;2.10;0.80;;;;;;;19.18;53.15;104255.19;5012228;28;20048;-64
2021/12/17 11:03:15;;;;;;;2.50;0.82;;;;;;;19.19;54.17;104248.06;5026814;28;20759;-64
2021/12/17 11:05:40;;;;;;;1.98;0.80;;;;;;;19.19;53.86;104248.94;5020729;28;20157;-64
2021/12/17 11:08:18;;;;;;;2.25;0.75;;;;;;;19.19;53.65;104251.59;5031251;28;20096;-65
2021/12/17 11:10:48;;;;;;;2.05;0.77;;;;;;;19.20;53.71;104260.44;5035053;28;20519;-64
2021/12/17 11:13:18;;;;;;;2.45;0.80;;;;;;;19.20;53.83;104252.44;5043613;28;20155;-64
2021/12/17 11:15:43;;;;;;;1.58;0.70;;;;;;;19.20;53.77;104255.13;5035661;28;20045;-64
2021/12/17 11:18:09;;;;;;;1.48;0.77;;;;;;;19.19;53.05;104256.06;5034474;28;20037;-64
2021/12/17 11:20:39;;;;;;;2.00;0.70;;;;;;;19.17;53.45;104256.09;5047189;28;20040;-64
2021/12/17 11:23:08;;;;;;;4.47;0.90;;;;;;;19.21;53.70;104253.31;5032839;28;20193;-64
2021/12/17 11:25:35;;;;;;;1.25;0.60;;;;;;;19.20;53.12;104247.13;5010507;28;20410;-64
2021/12/17 11:28:00;;;;;;;1.95;0.50;;;;;;;19.21;52.94;104243.56;5047588;28;20619;-63
2021/12/17 11:30:34;;;;;;;1.65;0.70;;;;;;;19.23;53.80;104246.16;5038166;28;20573;-64
2021/12/17 11:33:01;;;;;;;2.10;0.63;;;;;;;19.24;53.83;104251.41;5017244;28;20045;-63
2021/12/17 11:35:27;;;;;;;1.35;0.60;;;;;;;19.33;52.95;104244.84;5034676;28;20180;-63
2021/12/17 11:37:54;;;;;;;1.80;0.60;;;;;;;19.17;52.59;104248.09;5027104;28;20124;-63
2021/12/17 11:40:27;;;;;;;3.58;0.90;;;;;;;19.13;53.02;104242.97;5021892;28;20033;-64
2021/12/17 11:43:33;;;;;;;2.40;0.63;;;;;;;19.20;53.14;104249.78;5015149;28;20034;-64
2021/12/17 11:46:00;;;;;;;3.72;0.70;;;;;;;19.27;54.24;104250.41;5002408;28;20087;-64
2021/12/17 11:48:26;;;;;;;3.85;0.70;;;;;;;19.28;53.41;104249.50;5013843;28;20116;-64
2021/12/17 11:51:13;;;;;;;2.00;0.60;;;;;;;19.38;53.19;104238.41;5040678;28;20121;-73
2021/12/17 11:53:53;;;;;;;2.75;0.60;;;;;;;19.40;52.85;104243.69;5042342;28;20037;-64
2021/12/17 11:56:32;;;;;;;3.58;0.80;;;;;;;19.35;53.64;104249.19;5009298;28;20041;-64
2021/12/17 11:58:58;;;;;;;3.28;0.80;;;;;;;19.41;54.06;104248.06;5040146;28;20045;-64
2021/12/17 12:02:02;;;;;;;1.95;0.70;;;;;;;19.37;54.36;104250.00;5031281;28;21218;-64
2021/12/17 12:04:34;;;;;;;2.42;0.73;;;;;;;19.37;54.10;104251.81;5012359;28;20717;-64
2021/12/17 12:07:03;;;;;;;2.15;0.80;;;;;;;19.36;54.42;104258.91;5029691;28;20130;-64
2021/12/17 12:09:57;;;;;;;2.20;0.90;;;;;;;19.31;53.83;104257.38;5033152;28;20033;-64
2021/12/17 12:12:45;;;;;;;3.00;1.20;;;;;;;19.26;54.30;104254.00;5028900;28;20053;-64
2021/12/17 12:15:17;;;;;;;3.25;1.10;;;;;;;19.29;54.19;104259.22;5014058;28;20478;-64
2021/12/17 12:17:57;;;;;;;3.72;1.25;;;;;;;19.26;54.14;104262.84;5037314;28;20045;-64
2021/12/17 12:20:44;;;;;;;3.63;1.20;;;;;;;19.26;54.33;104267.31;5046066;28;20754;-64
2021/12/17 12:23:28;;;;;;;3.72;0.90;;;;;;;19.24;53.63;104266.50;5031476;28;20043;-64
2021/12/17 12:26:03;;;;;;;2.58;0.77;;;;;;;19.23;53.59;104270.09;5047054;28;20047;-64
2021/12/17 12:28:52;;;;;;;1.55;0.65;;;;;;;19.24;53.85;104272.72;5034766;28;20102;-64
2021/12/17 12:31:23;;;;;;;2.55;1.08;;;;;;;19.24;54.02;104269.16;5040519;28;20045;-64
2021/12/17 12:36:51;;;;;;;3.78;1.08;;;;;;;19.21;53.62;104250.66;5030064;28;20056;-64
2021/12/17 12:39:38;;;;;;;3.03;1.40;;;;;;;19.24;53.45;104255.84;5035392;28;20041;-64
2021/12/17 12:42:11;;;;;;;3.83;0.70;;;;;;;19.23;54.14;104251.47;5050706;28;20048;-64
2021/12/17 12:44:40;;;;;;;2.17;0.60;;;;;;;19.25;54.09;104245.16;5050744;28;20045;-65
2021/12/17 12:47:06;;;;;;;1.67;0.80;;;;;;;19.25;53.69;104238.97;5050086;28;20068;-64
2021/12/17 12:49:51;;;;;;;2.65;0.77;;;;;;;19.25;53.94;104231.84;5050466;28;20036;-64
2021/12/17 12:52:28;;;;;;;3.22;0.70;;;;;;;19.20;53.98;104239.13;5039135;28;20072;-64
2021/12/17 12:54:58;;;;;;;1.75;0.77;;;;;;;19.21;53.89;104230.25;5039822;28;20044;-64
2021/12/17 12:57:31;;;;;;;2.80;0.70;;;;;;;19.23;53.81;104248.81;5012337;28;20128;-64
2021/12/17 12:59:59;;;;;;;1.85;0.70;;;;;;;19.23;53.74;104243.47;5011686;28;20065;-64
2021/12/17 13:02:27;;;;;;;1.70;0.70;;;;;;;19.21;53.39;104235.56;5029490;28;20116;-64
2021/12/17 13:04:54;;;;;;;2.20;0.70;;;;;;;19.19;53.26;104235.63;5011974;28;20103;-64
2021/12/17 13:07:31;;;;;;;2.17;0.60;;;;;;;19.21;53.44;104235.56;5012217;28;20041;-64
2021/12/17 13:09:57;;;;;;;2.05;0.90;;;;;;;19.21;53.77;104235.56;5029748;28;20038;-64
2021/12/17 13:12:25;;;;;;;1.80;0.65;;;;;;;19.20;53.47;104236.47;5005667;28;20037;-64
2021/12/17 13:14:55;;;;;;;1.90;0.70;;;;;;;19.18;53.96;104241.00;5030509;28;20095;-64
2021/12/17 13:23:13;;;;;;;2.03;0.80;;;;;;;19.24;53.38;104239.88;5006429;28;20037;-64
2021/12/17 13:25:39;;;;;;;1.48;0.70;;;;;;;19.23;53.78;104244.34;5030113;28;20044;-64
2021/12/17 13:28:04;;;;;;;2.75;0.80;;;;;;;19.25;53.51;104236.31;5029724;28;20276;-64
2021/12/17 13:30:30;;;;;;;2.05;0.82;;;;;;;19.23;53.40;104238.16;5012164;28;20049;-63
2021/12/17 13:32:55;;;;;;;2.10;0.80;;;;;;;19.23;53.28;104228.38;5031404;28;20111;-64
2021/12/17 13:35:22;;;;;;;4.07;0.88;;;;;;;19.21;53.81;104221.38;5011198;28;20041;-64
2021/12/17 13:37:48;;;;;;;1.90;0.80;;;;;;;19.19;53.13;104222.31;5029249;28;20029;-64
2021/12/17 13:40:13;;;;;;;1.85;0.90;;;;;;;19.22;53.39;104223.13;5028230;28;20056;-64
2021/12/17 13:42:43;;;;;;;2.35;0.80;;;;;;;19.23;53.03;104222.19;5029993;28;20048;-64
2021/12/17 13:45:10;;;;;;;2.30;1.00;;;;;;;19.22;53.80;104220.47;4995272;28;20053;-64
2021/12/17 13:47:40;;;;;;;2.65;0.88;;;;;;;19.24;53.43;104215.91;5011636;28;20117;-64
2021/12/17 13:50:26;;;;;;;2.22;0.88;;;;;;;19.23;52.85;104223.03;5010443;28;20561;-66
2021/12/17 13:53:03;;;;;;;1.70;0.70;;;;;;;19.23;53.09;104209.72;5036413;28;20049;-64
2021/12/17 13:55:37;;;;;;;2.30;0.88;;;;;;;19.27;53.11;104214.00;5018182;28;20045;-64
2021/12/17 13:58:06;;;;;;;1.52;0.68;;;;;;;19.28;53.23;104213.09;5032067;28;20052;-64
2021/12/17 14:00:36;;;;;;;2.10;0.82;;;;;;;19.31;53.42;104220.09;5018137;28;20048;-64
2021/12/17 14:03:02;;;;;;;3.67;0.90;;;;;;;19.31;54.11;104225.41;5011905;28;20064;-65
2021/12/17 14:05:30;;;;;;;3.03;1.10;;;;;;;19.19;53.16;104226.78;4980140;28;20041;-63
2021/12/17 14:08:00;;;;;;;2.55;1.13;;;;;;;19.21;53.99;104226.69;5012450;28;20390;-64
2021/12/17 14:10:32;;;;;;;3.50;1.10;;;;;;;19.28;53.73;104228.19;5016433;28;20065;-64
2021/12/17 14:12:59;;;;;;;2.80;1.20;;;;;;;19.27;54.32;104224.66;5027744;28;20048;-64
2021/12/17 14:15:27;;;;;;;1.90;1.02;;;;;;;19.25;53.64;104231.84;5026884;28;20047;-64
2021/12/17 14:17:57;;;;;;;2.67;0.90;;;;;;;19.25;54.32;104231.84;5027194;28;20127;-64
2021/12/17 14:20:25;;;;;;;1.73;1.00;;;;;;;19.25;53.50;104233.66;5028966;28;20033;-64
2021/12/17 14:23:11;;;;;;;2.92;1.27;;;;;;;19.26;53.52;104232.72;5041298;28;20032;-64
2021/12/17 14:25:56;;;;;;;2.67;1.00;;;;;;;19.25;53.66;104225.66;5033874;28;20045;-64
2021/12/17 14:28:25;;;;;;;2.40;1.10;;;;;;;19.26;53.35;104225.59;5000013;28;20041;-64
2021/12/17 14:30:53;;;;;;;2.47;1.13;;;;;;;19.27;53.95;104219.31;5028618;28;20041;-64
2021/12/17 14:33:20;;;;;;;2.72;1.10;;;;;;;19.26;53.35;104216.75;5035603;28;20060;-64
2021/12/17 14:35:48;;;;;;;2.58;1.20;;;;;;;19.23;53.83;104203.53;5034599;28;20133;-64
2021/12/17 14:38:14;;;;;;;3.00;1.30;;;;;;;19.25;53.39;104209.69;5047370;28;20037;-64
2021/12/17 14:40:47;;;;;;;2.75;1.25;;;;;;;19.22;53.93;104201.81;5014603;28;20121;-64
2021/12/17 14:43:19;;;;;;;3.50;1.33;;;;;;;19.23;53.02;104206.22;5031540;28;20037;-64
2021/12/17 14:45:55;;;;;;;3.03;1.60;;;;;;;19.24;53.11;104207.94;5035147;28;20048;-63
2021/12/17 14:48:29;;;;;;;2.22;1.23;;;;;;;19.23;53.52;104206.22;5013127;28;20145;-64